Abisko, Sweden

5:08 PM CEST on July 06, 2015 (GMT +0200)
Abisko Utsikten | | Change Station
CLOSE
Current Station
Personal Weather Station
Location: Abisko, KIRUNA
Elevation: 1200 ft
Nearby Weather Stations

Elev 1200 ft 68.35 °N, 18.83 °E | Updated 1 minute ago

Mostly Cloudy
Mostly Cloudy
48.6 °F
Feels Like 46 °F
N
7.0
Wind Variable Wind from ENE
Gusts 12.0 mph

Today
High -- | Low -- °F
--% Chance of Precip.
Yesterday
High -- | Low -- °F
Precip. -- in
1:21 AM 0:17 AM
Waning Gibbous, 75% visible
Pressure 29.68 in
Visibility 6.2 miles
Clouds Few 5000 ft
Mostly Cloudy 7000 ft
Windchill 46 °F
Dew Point 44 °F
Humidity 83%
Rainfall 0.00 in
Snow Depth Not available.
UV 2 out of 12
Pollen Not available.
Air Quality Not available.
Flu Activity Not available.
METAR ENNK 061450Z 03011KT 9999 FEW050 BKN070 15/07 Q1005

More Conditions Fewer Conditions

Pressure 29.68 in
Visibility 6.2 miles
Clouds Few 5000 ft
Mostly Cloudy 7000 ft
Windchill 46 °F
Dew Point 44 °F
Humidity 83%
Rainfall 0.00 in
Snow Depth Not available.
UV 2 out of 12
Pollen Not available.
Air Quality Not available.
Flu Activity Not available.
METAR ENNK 061450Z 03011KT 9999 FEW050 BKN070 15/07 Q1005

More Conditions Fewer Conditions

10-Day Weather Forecast

×

Almanac

Astronomy

Jul. 06, 2015 Rise Set
Actual Time
Civil Twilight
Nautical Twilight
Astronomical Twilight
Moon
Length of Visible Light
Length of Day
Tomorrow will be .
, % of the Moon is Illuminated

Today's Extremes

Country Highs Country Lows

Community

WunderPhotos

Upload Photos

1,835,570 photos uploaded!

WunderBlogs® & News

Nearby

Air Quality

  Air Quality AQ Index Pollutant
Not available.

Snow Depth

Station Depth Elevation

Earthquake Activity

City Distance Mag. Time & Date
Minimum magnitude displayed is 2.5.

Coastal Water Temperatures

Place Temperature

Stations

Nearby Weather Stations

Station Location Temp. Windchill Dew Point Humidity Wind Precip. Elev Updated Type